sensor_id;sensor_type;location;lat;lon;timestamp;temperature;humidity
29031;DHT22;16122;50.236;11.734;2023-06-26T00:01:20;21.40;66.70
29031;DHT22;16122;50.236;11.734;2023-06-26T00:03:46;21.30;66.60
29031;DHT22;16122;50.236;11.734;2023-06-26T00:06:13;21.30;66.60
29031;DHT22;16122;50.236;11.734;2023-06-26T00:08:39;21.30;66.60
29031;DHT22;16122;50.236;11.734;2023-06-26T00:11:04;21.30;66.50
29031;DHT22;16122;50.236;11.734;2023-06-26T00:13:30;21.30;66.60
29031;DHT22;16122;50.236;11.734;2023-06-26T00:15:56;21.30;66.50
29031;DHT22;16122;50.236;11.734;2023-06-26T00:18:22;21.20;66.70
29031;DHT22;16122;50.236;11.734;2023-06-26T00:20:49;21.30;66.70
29031;DHT22;16122;50.236;11.734;2023-06-26T00:23:17;21.30;66.50
29031;DHT22;16122;50.236;11.734;2023-06-26T00:25:43;21.30;66.60
29031;DHT22;16122;50.236;11.734;2023-06-26T00:28:10;21.30;66.50
29031;DHT22;16122;50.236;11.734;2023-06-26T00:30:37;21.30;66.50
29031;DHT22;16122;50.236;11.734;2023-06-26T00:33:03;21.30;66.40
29031;DHT22;16122;50.236;11.734;2023-06-26T00:35:30;21.30;66.50
29031;DHT22;16122;50.236;11.734;2023-06-26T00:37:56;21.30;66.40
29031;DHT22;16122;50.236;11.734;2023-06-26T00:40:22;21.30;66.40
29031;DHT22;16122;50.236;11.734;2023-06-26T00:42:50;21.30;66.40
29031;DHT22;16122;50.236;11.734;2023-06-26T00:45:16;21.30;66.40
29031;DHT22;16122;50.236;11.734;2023-06-26T00:47:41;21.30;66.40
29031;DHT22;16122;50.236;11.734;2023-06-26T00:50:07;21.30;66.30
29031;DHT22;16122;50.236;11.734;2023-06-26T00:52:33;21.30;66.30
29031;DHT22;16122;50.236;11.734;2023-06-26T00:54:59;21.30;66.30
29031;DHT22;16122;50.236;11.734;2023-06-26T00:57:25;21.20;66.20
29031;DHT22;16122;50.236;11.734;2023-06-26T00:59:53;21.20;66.10
29031;DHT22;16122;50.236;11.734;2023-06-26T01:02:20;21.20;66.10
29031;DHT22;16122;50.236;11.734;2023-06-26T01:04:50;21.20;66.00
29031;DHT22;16122;50.236;11.734;2023-06-26T01:07:17;21.20;65.90
29031;DHT22;16122;50.236;11.734;2023-06-26T01:09:48;21.20;65.90
29031;DHT22;16122;50.236;11.734;2023-06-26T01:12:14;21.20;65.90
29031;DHT22;16122;50.236;11.734;2023-06-26T01:14:41;21.20;65.90
29031;DHT22;16122;50.236;11.734;2023-06-26T01:17:08;21.20;65.90
29031;DHT22;16122;50.236;11.734;2023-06-26T01:19:38;21.20;65.90
29031;DHT22;16122;50.236;11.734;2023-06-26T01:24:45;21.20;65.80
29031;DHT22;16122;50.236;11.734;2023-06-26T01:27:11;21.20;65.80
29031;DHT22;16122;50.236;11.734;2023-06-26T01:29:38;21.20;65.70
29031;DHT22;16122;50.236;11.734;2023-06-26T01:32:07;21.20;65.70
29031;DHT22;16122;50.236;11.734;2023-06-26T01:34:33;21.20;65.60
29031;DHT22;16122;50.236;11.734;2023-06-26T01:36:59;21.20;65.60
29031;DHT22;16122;50.236;11.734;2023-06-26T01:39:25;21.20;65.70
29031;DHT22;16122;50.236;11.734;2023-06-26T01:41:51;21.10;65.60
29031;DHT22;16122;50.236;11.734;2023-06-26T01:44:23;21.10;65.60
29031;DHT22;16122;50.236;11.734;2023-06-26T01:47:02;21.10;65.50
29031;DHT22;16122;50.236;11.734;2023-06-26T01:52:40;21.10;65.40
29031;DHT22;16122;50.236;11.734;2023-06-26T01:55:35;21.10;65.30
29031;DHT22;16122;50.236;11.734;2023-06-26T01:58:04;21.10;65.20
29031;DHT22;16122;50.236;11.734;2023-06-26T02:00:31;21.10;65.10
29031;DHT22;16122;50.236;11.734;2023-06-26T02:02:57;21.10;65.10
29031;DHT22;16122;50.236;11.734;2023-06-26T02:05:23;21.10;65.10
29031;DHT22;16122;50.236;11.734;2023-06-26T02:07:49;21.10;65.10
29031;DHT22;16122;50.236;11.734;2023-06-26T02:10:16;21.10;65.10
29031;DHT22;16122;50.236;11.734;2023-06-26T02:12:42;21.10;65.10
29031;DHT22;16122;50.236;11.734;2023-06-26T02:15:08;21.10;65.00
29031;DHT22;16122;50.236;11.734;2023-06-26T02:17:34;21.10;65.10
29031;DHT22;16122;50.236;11.734;2023-06-26T02:20:00;21.10;65.10
29031;DHT22;16122;50.236;11.734;2023-06-26T02:22:26;21.10;65.10
29031;DHT22;16122;50.236;11.734;2023-06-26T02:24:54;21.10;65.00
29031;DHT22;16122;50.236;11.734;2023-06-26T02:27:20;21.10;65.00
29031;DHT22;16122;50.236;11.734;2023-06-26T02:29:46;21.00;64.80
29031;DHT22;16122;50.236;11.734;2023-06-26T02:32:12;21.00;64.80
29031;DHT22;16122;50.236;11.734;2023-06-26T02:34:37;21.00;64.80
29031;DHT22;16122;50.236;11.734;2023-06-26T02:37:03;21.00;64.70
29031;DHT22;16122;50.236;11.734;2023-06-26T02:39:34;21.00;64.80
29031;DHT22;16122;50.236;11.734;2023-06-26T02:42:00;21.00;64.70
29031;DHT22;16122;50.236;11.734;2023-06-26T02:44:26;21.00;64.60
29031;DHT22;16122;50.236;11.734;2023-06-26T02:46:52;21.00;64.50
29031;DHT22;16122;50.236;11.734;2023-06-26T02:49:18;21.00;64.50
29031;DHT22;16122;50.236;11.734;2023-06-26T02:51:44;21.00;64.40
29031;DHT22;16122;50.236;11.734;2023-06-26T02:54:21;21.00;64.40
29031;DHT22;16122;50.236;11.734;2023-06-26T02:56:52;21.00;64.40
29031;DHT22;16122;50.236;11.734;2023-06-26T02:59:23;21.00;64.40
29031;DHT22;16122;50.236;11.734;2023-06-26T03:01:49;21.00;64.40
29031;DHT22;16122;50.236;11.734;2023-06-26T03:04:16;21.00;64.40
29031;DHT22;16122;50.236;11.734;2023-06-26T03:06:44;21.00;64.20
29031;DHT22;16122;50.236;11.734;2023-06-26T03:09:10;21.00;64.20
29031;DHT22;16122;50.236;11.734;2023-06-26T03:11:36;21.00;64.20
29031;DHT22;16122;50.236;11.734;2023-06-26T03:14:01;21.00;64.30
29031;DHT22;16122;50.236;11.734;2023-06-26T03:16:27;21.00;64.20
29031;DHT22;16122;50.236;11.734;2023-06-26T03:18:53;20.90;64.10
29031;DHT22;16122;50.236;11.734;2023-06-26T03:21:19;20.90;64.10
29031;DHT22;16122;50.236;11.734;2023-06-26T03:23:45;21.00;64.10
29031;DHT22;16122;50.236;11.734;2023-06-26T03:26:11;20.90;64.00
29031;DHT22;16122;50.236;11.734;2023-06-26T03:28:40;20.90;64.00
29031;DHT22;16122;50.236;11.734;2023-06-26T03:31:08;20.90;63.90
29031;DHT22;16122;50.236;11.734;2023-06-26T03:33:34;20.90;64.10
29031;DHT22;16122;50.236;11.734;2023-06-26T03:36:01;20.90;64.00
29031;DHT22;16122;50.236;11.734;2023-06-26T03:38:27;20.90;64.10
29031;DHT22;16122;50.236;11.734;2023-06-26T03:40:55;20.90;64.10
29031;DHT22;16122;50.236;11.734;2023-06-26T03:43:21;20.90;64.10
29031;DHT22;16122;50.236;11.734;2023-06-26T03:46:10;20.90;64.00
29031;DHT22;16122;50.236;11.734;2023-06-26T03:48:36;20.90;64.10
29031;DHT22;16122;50.236;11.734;2023-06-26T03:51:03;20.90;64.10
29031;DHT22;16122;50.236;11.734;2023-06-26T03:53:29;20.90;64.20
29031;DHT22;16122;50.236;11.734;2023-06-26T03:55:55;20.90;64.20
29031;DHT22;16122;50.236;11.734;2023-06-26T03:58:22;20.90;64.20
29031;DHT22;16122;50.236;11.734;2023-06-26T04:00:48;20.90;64.30
29031;DHT22;16122;50.236;11.734;2023-06-26T04:03:14;20.90;64.30
29031;DHT22;16122;50.236;11.734;2023-06-26T04:05:41;20.90;64.30
29031;DHT22;16122;50.236;11.734;2023-06-26T04:08:06;20.90;64.40
29031;DHT22;16122;50.236;11.734;2023-06-26T04:10:32;20.90;64.50
29031;DHT22;16122;50.236;11.734;2023-06-26T04:12:58;20.90;64.60
29031;DHT22;16122;50.236;11.734;2023-06-26T04:15:24;20.90;64.70
29031;DHT22;16122;50.236;11.734;2023-06-26T04:17:50;20.90;64.80
29031;DHT22;16122;50.236;11.734;2023-06-26T04:20:15;20.90;64.90
29031;DHT22;16122;50.236;11.734;2023-06-26T04:22:41;20.90;65.00
29031;DHT22;16122;50.236;11.734;2023-06-26T04:25:07;20.90;65.10
29031;DHT22;16122;50.236;11.734;2023-06-26T04:27:33;20.90;64.90
29031;DHT22;16122;50.236;11.734;2023-06-26T04:29:59;20.90;65.00
29031;DHT22;16122;50.236;11.734;2023-06-26T04:32:25;20.90;65.20
29031;DHT22;16122;50.236;11.734;2023-06-26T04:34:50;20.90;65.20
29031;DHT22;16122;50.236;11.734;2023-06-26T04:37:16;20.90;65.40
29031;DHT22;16122;50.236;11.734;2023-06-26T04:39:43;20.90;65.60
29031;DHT22;16122;50.236;11.734;2023-06-26T04:42:09;20.90;65.60
29031;DHT22;16122;50.236;11.734;2023-06-26T04:44:37;21.00;65.70
29031;DHT22;16122;50.236;11.734;2023-06-26T04:47:03;21.00;65.70
29031;DHT22;16122;50.236;11.734;2023-06-26T04:49:29;21.00;65.70
29031;DHT22;16122;50.236;11.734;2023-06-26T04:51:56;21.00;65.80
29031;DHT22;16122;50.236;11.734;2023-06-26T04:54:22;21.00;65.90
29031;DHT22;16122;50.236;11.734;2023-06-26T04:56:48;21.00;66.00
29031;DHT22;16122;50.236;11.734;2023-06-26T04:59:14;21.00;66.10
29031;DHT22;16122;50.236;11.734;2023-06-26T05:01:40;21.00;66.10
29031;DHT22;16122;50.236;11.734;2023-06-26T05:04:07;21.00;65.90
29031;DHT22;16122;50.236;11.734;2023-06-26T05:06:32;21.00;65.90
29031;DHT22;16122;50.236;11.734;2023-06-26T05:08:58;21.00;65.70
29031;DHT22;16122;50.236;11.734;2023-06-26T05:11:25;21.00;65.70
29031;DHT22;16122;50.236;11.734;2023-06-26T05:13:51;21.00;65.70
29031;DHT22;16122;50.236;11.734;2023-06-26T05:16:17;21.00;65.50
29031;DHT22;16122;50.236;11.734;2023-06-26T05:18:43;21.00;65.70
29031;DHT22;16122;50.236;11.734;2023-06-26T05:21:09;21.00;65.50
29031;DHT22;16122;50.236;11.734;2023-06-26T05:23:35;21.00;65.30
29031;DHT22;16122;50.236;11.734;2023-06-26T05:26:02;21.00;65.40
29031;DHT22;16122;50.236;11.734;2023-06-26T05:28:29;21.00;65.10
29031;DHT22;16122;50.236;11.734;2023-06-26T05:30:57;20.90;65.20
29031;DHT22;16122;50.236;11.734;2023-06-26T05:33:25;20.90;65.30
29031;DHT22;16122;50.236;11.734;2023-06-26T05:35:54;20.90;65.10
29031;DHT22;16122;50.236;11.734;2023-06-26T05:38:21;20.90;65.40
29031;DHT22;16122;50.236;11.734;2023-06-26T05:40:47;20.90;66.10
29031;DHT22;16122;50.236;11.734;2023-06-26T05:43:13;20.90;65.30
29031;DHT22;16122;50.236;11.734;2023-06-26T05:45:40;20.90;65.00
29031;DHT22;16122;50.236;11.734;2023-06-26T05:48:06;21.00;65.20
29031;DHT22;16122;50.236;11.734;2023-06-26T05:50:32;21.00;65.30
29031;DHT22;16122;50.236;11.734;2023-06-26T05:52:59;21.00;64.90
29031;DHT22;16122;50.236;11.734;2023-06-26T05:55:26;21.00;65.00
29031;DHT22;16122;50.236;11.734;2023-06-26T05:57:53;21.00;65.00
29031;DHT22;16122;50.236;11.734;2023-06-26T06:00:23;21.00;65.10
29031;DHT22;16122;50.236;11.734;2023-06-26T06:02:49;21.00;64.30
29031;DHT22;16122;50.236;11.734;2023-06-26T06:05:15;21.00;64.20
29031;DHT22;16122;50.236;11.734;2023-06-26T06:07:40;21.00;64.30
29031;DHT22;16122;50.236;11.734;2023-06-26T06:10:06;21.10;64.60
29031;DHT22;16122;50.236;11.734;2023-06-26T06:12:33;21.00;63.70
29031;DHT22;16122;50.236;11.734;2023-06-26T06:14:59;21.00;63.00
29031;DHT22;16122;50.236;11.734;2023-06-26T06:17:25;21.00;62.70
29031;DHT22;16122;50.236;11.734;2023-06-26T06:19:51;21.00;63.10
29031;DHT22;16122;50.236;11.734;2023-06-26T06:22:16;21.00;63.10
29031;DHT22;16122;50.236;11.734;2023-06-26T06:24:43;21.10;62.90
29031;DHT22;16122;50.236;11.734;2023-06-26T06:27:09;21.10;62.40
29031;DHT22;16122;50.236;11.734;2023-06-26T06:29:35;21.10;61.00
29031;DHT22;16122;50.236;11.734;2023-06-26T06:32:01;21.10;60.80
29031;DHT22;16122;50.236;11.734;2023-06-26T06:34:26;21.10;61.20
29031;DHT22;16122;50.236;11.734;2023-06-26T06:36:52;21.10;60.90
29031;DHT22;16122;50.236;11.734;2023-06-26T06:39:18;21.10;60.90
29031;DHT22;16122;50.236;11.734;2023-06-26T06:41:44;21.10;60.70
29031;DHT22;16122;50.236;11.734;2023-06-26T06:44:11;21.10;60.80
29031;DHT22;16122;50.236;11.734;2023-06-26T06:46:36;21.10;61.00
29031;DHT22;16122;50.236;11.734;2023-06-26T06:49:02;21.10;60.30
29031;DHT22;16122;50.236;11.734;2023-06-26T06:51:29;21.10;60.30
29031;DHT22;16122;50.236;11.734;2023-06-26T06:53:55;21.10;60.10
29031;DHT22;16122;50.236;11.734;2023-06-26T06:56:21;21.10;59.80
29031;DHT22;16122;50.236;11.734;2023-06-26T06:58:47;21.10;59.30
29031;DHT22;16122;50.236;11.734;2023-06-26T07:01:13;21.10;59.00
29031;DHT22;16122;50.236;11.734;2023-06-26T07:03:39;21.10;58.70
29031;DHT22;16122;50.236;11.734;2023-06-26T07:06:05;21.10;59.40
29031;DHT22;16122;50.236;11.734;2023-06-26T07:08:31;21.10;59.50
29031;DHT22;16122;50.236;11.734;2023-06-26T07:10:57;21.10;59.40
29031;DHT22;16122;50.236;11.734;2023-06-26T07:13:23;21.10;59.30
29031;DHT22;16122;50.236;11.734;2023-06-26T07:15:49;21.10;59.10
29031;DHT22;16122;50.236;11.734;2023-06-26T07:18:15;21.10;59.50
29031;DHT22;16122;50.236;11.734;2023-06-26T07:20:41;21.10;59.50
29031;DHT22;16122;50.236;11.734;2023-06-26T07:23:07;21.10;59.70
29031;DHT22;16122;50.236;11.734;2023-06-26T07:25:33;21.10;59.80
29031;DHT22;16122;50.236;11.734;2023-06-26T07:27:59;21.10;59.80
29031;DHT22;16122;50.236;11.734;2023-06-26T07:30:25;21.10;59.80
29031;DHT22;16122;50.236;11.734;2023-06-26T07:32:51;21.10;59.90
29031;DHT22;16122;50.236;11.734;2023-06-26T07:35:17;21.10;59.90
29031;DHT22;16122;50.236;11.734;2023-06-26T07:37:43;21.20;60.00
29031;DHT22;16122;50.236;11.734;2023-06-26T07:40:09;21.10;59.80
29031;DHT22;16122;50.236;11.734;2023-06-26T07:42:35;21.20;59.40
29031;DHT22;16122;50.236;11.734;2023-06-26T07:45:01;21.20;59.60
29031;DHT22;16122;50.236;11.734;2023-06-26T07:47:30;21.20;59.50
29031;DHT22;16122;50.236;11.734;2023-06-26T07:49:56;21.20;59.30
29031;DHT22;16122;50.236;11.734;2023-06-26T07:52:22;21.20;59.30
29031;DHT22;16122;50.236;11.734;2023-06-26T07:54:48;21.20;59.30
29031;DHT22;16122;50.236;11.734;2023-06-26T07:57:13;21.20;59.40
29031;DHT22;16122;50.236;11.734;2023-06-26T07:59:39;21.20;59.30
29031;DHT22;16122;50.236;11.734;2023-06-26T08:02:06;21.20;59.50
29031;DHT22;16122;50.236;11.734;2023-06-26T08:04:32;21.20;59.50
29031;DHT22;16122;50.236;11.734;2023-06-26T08:07:00;21.20;59.70
29031;DHT22;16122;50.236;11.734;2023-06-26T08:09:27;21.20;59.70
29031;DHT22;16122;50.236;11.734;2023-06-26T08:11:54;21.20;59.60
29031;DHT22;16122;50.236;11.734;2023-06-26T08:14:20;21.20;59.70
29031;DHT22;16122;50.236;11.734;2023-06-26T08:16:47;21.20;59.80
29031;DHT22;16122;50.236;11.734;2023-06-26T08:19:14;21.20;59.70
29031;DHT22;16122;50.236;11.734;2023-06-26T08:21:44;21.20;59.60
29031;DHT22;16122;50.236;11.734;2023-06-26T08:24:10;21.20;59.00
29031;DHT22;16122;50.236;11.734;2023-06-26T08:26:37;21.30;58.60
29031;DHT22;16122;50.236;11.734;2023-06-26T08:29:03;21.30;58.90
29031;DHT22;16122;50.236;11.734;2023-06-26T08:31:34;21.30;58.60
29031;DHT22;16122;50.236;11.734;2023-06-26T08:34:01;21.30;58.80
29031;DHT22;16122;50.236;11.734;2023-06-26T08:36:27;21.30;58.70
29031;DHT22;16122;50.236;11.734;2023-06-26T08:38:53;21.30;58.80
29031;DHT22;16122;50.236;11.734;2023-06-26T08:41:18;21.30;58.90
29031;DHT22;16122;50.236;11.734;2023-06-26T08:43:44;21.30;58.90
29031;DHT22;16122;50.236;11.734;2023-06-26T08:46:11;21.30;59.00
29031;DHT22;16122;50.236;11.734;2023-06-26T08:48:37;21.30;59.20
29031;DHT22;16122;50.236;11.734;2023-06-26T08:51:09;21.30;59.40
29031;DHT22;16122;50.236;11.734;2023-06-26T08:56:09;21.30;59.60
29031;DHT22;16122;50.236;11.734;2023-06-26T08:58:37;21.30;59.60
29031;DHT22;16122;50.236;11.734;2023-06-26T09:01:04;21.30;59.50
29031;DHT22;16122;50.236;11.734;2023-06-26T09:03:31;21.30;59.60
29031;DHT22;16122;50.236;11.734;2023-06-26T09:05:57;21.30;59.50
29031;DHT22;16122;50.236;11.734;2023-06-26T09:08:23;21.30;59.50
29031;DHT22;16122;50.236;11.734;2023-06-26T09:10:49;21.30;59.60
29031;DHT22;16122;50.236;11.734;2023-06-26T09:13:15;21.30;59.60
29031;DHT22;16122;50.236;11.734;2023-06-26T09:15:45;21.30;59.00
29031;DHT22;16122;50.236;11.734;2023-06-26T09:18:12;21.30;59.50
29031;DHT22;16122;50.236;11.734;2023-06-26T09:20:38;21.30;59.40
29031;DHT22;16122;50.236;11.734;2023-06-26T09:23:05;21.30;59.40
29031;DHT22;16122;50.236;11.734;2023-06-26T09:25:31;21.30;59.50
29031;DHT22;16122;50.236;11.734;2023-06-26T09:27:57;21.40;59.60
29031;DHT22;16122;50.236;11.734;2023-06-26T09:30:24;21.30;59.60
29031;DHT22;16122;50.236;11.734;2023-06-26T09:32:50;21.30;59.70
29031;DHT22;16122;50.236;11.734;2023-06-26T09:35:16;21.30;59.70
29031;DHT22;16122;50.236;11.734;2023-06-26T09:37:43;21.30;59.50
29031;DHT22;16122;50.236;11.734;2023-06-26T09:40:09;21.30;59.60
29031;DHT22;16122;50.236;11.734;2023-06-26T09:42:36;21.30;59.90
29031;DHT22;16122;50.236;11.734;2023-06-26T09:45:02;21.30;59.50
29031;DHT22;16122;50.236;11.734;2023-06-26T09:47:30;21.30;59.20
29031;DHT22;16122;50.236;11.734;2023-06-26T09:49:57;21.30;59.00
29031;DHT22;16122;50.236;11.734;2023-06-26T09:52:26;21.40;59.00
29031;DHT22;16122;50.236;11.734;2023-06-26T09:55:10;21.30;59.00
29031;DHT22;16122;50.236;11.734;2023-06-26T09:57:35;21.40;59.20
29031;DHT22;16122;50.236;11.734;2023-06-26T10:00:02;21.30;59.20
29031;DHT22;16122;50.236;11.734;2023-06-26T10:02:38;21.40;59.30
29031;DHT22;16122;50.236;11.734;2023-06-26T10:05:04;21.40;59.40
29031;DHT22;16122;50.236;11.734;2023-06-26T10:07:30;21.40;59.40
29031;DHT22;16122;50.236;11.734;2023-06-26T10:09:57;21.40;59.60
29031;DHT22;16122;50.236;11.734;2023-06-26T10:12:30;21.40;59.70
29031;DHT22;16122;50.236;11.734;2023-06-26T10:14:57;21.40;59.70
29031;DHT22;16122;50.236;11.734;2023-06-26T10:17:27;21.40;59.80
29031;DHT22;16122;50.236;11.734;2023-06-26T10:19:55;21.40;59.80
29031;DHT22;16122;50.236;11.734;2023-06-26T10:22:28;21.40;59.70
29031;DHT22;16122;50.236;11.734;2023-06-26T10:24:57;21.40;59.70
29031;DHT22;16122;50.236;11.734;2023-06-26T10:27:27;21.40;59.60
29031;DHT22;16122;50.236;11.734;2023-06-26T10:29:56;21.40;59.60
29031;DHT22;16122;50.236;11.734;2023-06-26T10:32:25;21.40;59.70
29031;DHT22;16122;50.236;11.734;2023-06-26T10:34:52;21.40;59.70
29031;DHT22;16122;50.236;11.734;2023-06-26T10:37:18;21.40;59.70
29031;DHT22;16122;50.236;11.734;2023-06-26T10:39:52;21.40;59.70
29031;DHT22;16122;50.236;11.734;2023-06-26T10:42:34;21.40;59.70
29031;DHT22;16122;50.236;11.734;2023-06-26T10:45:14;21.40;59.70
29031;DHT22;16122;50.236;11.734;2023-06-26T10:47:41;21.40;59.40
29031;DHT22;16122;50.236;11.734;2023-06-26T10:50:23;21.40;59.20
29031;DHT22;16122;50.236;11.734;2023-06-26T10:55:44;21.40;59.20
29031;DHT22;16122;50.236;11.734;2023-06-26T10:58:32;21.40;59.20
29031;DHT22;16122;50.236;11.734;2023-06-26T11:01:17;21.40;59.10
29031;DHT22;16122;50.236;11.734;2023-06-26T11:03:46;21.40;59.20
29031;DHT22;16122;50.236;11.734;2023-06-26T11:06:19;21.40;59.20
29031;DHT22;16122;50.236;11.734;2023-06-26T11:11:15;21.40;59.00
29031;DHT22;16122;50.236;11.734;2023-06-26T11:13:42;21.40;59.00
29031;DHT22;16122;50.236;11.734;2023-06-26T11:16:08;21.40;58.90
29031;DHT22;16122;50.236;11.734;2023-06-26T11:18:34;21.50;59.00
29031;DHT22;16122;50.236;11.734;2023-06-26T11:21:10;21.50;59.00
29031;DHT22;16122;50.236;11.734;2023-06-26T11:23:40;21.40;58.80
29031;DHT22;16122;50.236;11.734;2023-06-26T11:26:21;21.50;58.90
29031;DHT22;16122;50.236;11.734;2023-06-26T11:31:30;21.50;58.90
29031;DHT22;16122;50.236;11.734;2023-06-26T11:33:58;21.50;58.70
29031;DHT22;16122;50.236;11.734;2023-06-26T11:36:28;21.50;58.70
29031;DHT22;16122;50.236;11.734;2023-06-26T11:39:01;21.50;58.70
29031;DHT22;16122;50.236;11.734;2023-06-26T11:41:30;21.50;58.60
29031;DHT22;16122;50.236;11.734;2023-06-26T11:44:00;21.50;58.60
29031;DHT22;16122;50.236;11.734;2023-06-26T11:46:26;21.50;58.70
29031;DHT22;16122;50.236;11.734;2023-06-26T11:48:53;21.50;58.70
29031;DHT22;16122;50.236;11.734;2023-06-26T11:51:19;21.50;58.60
29031;DHT22;16122;50.236;11.734;2023-06-26T11:53:47;21.50;58.60
29031;DHT22;16122;50.236;11.734;2023-06-26T11:56:17;21.50;58.60
29031;DHT22;16122;50.236;11.734;2023-06-26T12:03:59;21.50;58.60
29031;DHT22;16122;50.236;11.734;2023-06-26T12:06:27;21.50;58.60
29031;DHT22;16122;50.236;11.734;2023-06-26T12:08:54;21.50;58.60
29031;DHT22;16122;50.236;11.734;2023-06-26T12:11:23;21.50;58.40
29031;DHT22;16122;50.236;11.734;2023-06-26T12:13:49;21.50;58.50
29031;DHT22;16122;50.236;11.734;2023-06-26T12:16:15;21.50;58.50
29031;DHT22;16122;50.236;11.734;2023-06-26T12:18:41;21.50;58.50
29031;DHT22;16122;50.236;11.734;2023-06-26T12:21:07;21.50;58.50
29031;DHT22;16122;50.236;11.734;2023-06-26T12:23:34;21.50;58.40
29031;DHT22;16122;50.236;11.734;2023-06-26T12:26:18;21.50;58.40
29031;DHT22;16122;50.236;11.734;2023-06-26T12:28:44;21.50;58.50
29031;DHT22;16122;50.236;11.734;2023-06-26T12:31:19;21.50;58.40
29031;DHT22;16122;50.236;11.734;2023-06-26T12:33:45;21.50;58.30
29031;DHT22;16122;50.236;11.734;2023-06-26T12:36:14;21.50;58.40
29031;DHT22;16122;50.236;11.734;2023-06-26T12:38:41;21.50;58.30
29031;DHT22;16122;50.236;11.734;2023-06-26T12:41:16;21.50;58.20
29031;DHT22;16122;50.236;11.734;2023-06-26T12:43:42;21.50;58.20
29031;DHT22;16122;50.236;11.734;2023-06-26T12:46:08;21.50;58.20
29031;DHT22;16122;50.236;11.734;2023-06-26T12:48:43;21.50;58.20
29031;DHT22;16122;50.236;11.734;2023-06-26T12:51:15;21.50;58.20
29031;DHT22;16122;50.236;11.734;2023-06-26T12:53:41;21.50;58.30
29031;DHT22;16122;50.236;11.734;2023-06-26T12:56:09;21.50;58.20
29031;DHT22;16122;50.236;11.734;2023-06-26T12:58:36;21.50;58.10
29031;DHT22;16122;50.236;11.734;2023-06-26T13:01:06;21.50;58.00
29031;DHT22;16122;50.236;11.734;2023-06-26T13:03:45;21.60;57.80
29031;DHT22;16122;50.236;11.734;2023-06-26T13:06:11;21.60;57.60
29031;DHT22;16122;50.236;11.734;2023-06-26T13:08:38;21.60;57.70
29031;DHT22;16122;50.236;11.734;2023-06-26T13:11:04;21.60;57.70
29031;DHT22;16122;50.236;11.734;2023-06-26T13:13:30;21.60;57.50
29031;DHT22;16122;50.236;11.734;2023-06-26T13:15:55;21.60;57.40
29031;DHT22;16122;50.236;11.734;2023-06-26T13:18:21;21.70;57.00
29031;DHT22;16122;50.236;11.734;2023-06-26T13:20:47;21.70;56.60
29031;DHT22;16122;50.236;11.734;2023-06-26T13:23:13;21.70;56.80
29031;DHT22;16122;50.236;11.734;2023-06-26T13:25:39;21.70;57.40
29031;DHT22;16122;50.236;11.734;2023-06-26T13:28:05;21.70;57.70
29031;DHT22;16122;50.236;11.734;2023-06-26T13:30:31;21.70;58.00
29031;DHT22;16122;50.236;11.734;2023-06-26T13:32:56;21.70;58.20
29031;DHT22;16122;50.236;11.734;2023-06-26T13:35:22;21.70;58.30
29031;DHT22;16122;50.236;11.734;2023-06-26T13:37:48;21.70;58.40
29031;DHT22;16122;50.236;11.734;2023-06-26T13:40:14;21.70;58.60
29031;DHT22;16122;50.236;11.734;2023-06-26T13:42:40;21.70;58.60
29031;DHT22;16122;50.236;11.734;2023-06-26T13:45:07;21.70;58.80
29031;DHT22;16122;50.236;11.734;2023-06-26T13:47:33;21.70;58.80
29031;DHT22;16122;50.236;11.734;2023-06-26T13:50:00;21.70;58.90
29031;DHT22;16122;50.236;11.734;2023-06-26T13:52:26;21.70;59.00
29031;DHT22;16122;50.236;11.734;2023-06-26T13:54:51;21.70;59.10
29031;DHT22;16122;50.236;11.734;2023-06-26T13:57:17;21.70;59.10
29031;DHT22;16122;50.236;11.734;2023-06-26T13:59:44;21.70;59.20
29031;DHT22;16122;50.236;11.734;2023-06-26T14:02:10;21.70;59.30
29031;DHT22;16122;50.236;11.734;2023-06-26T14:04:36;21.70;59.30
29031;DHT22;16122;50.236;11.734;2023-06-26T14:07:03;21.70;59.40
29031;DHT22;16122;50.236;11.734;2023-06-26T14:09:29;21.70;59.40
29031;DHT22;16122;50.236;11.734;2023-06-26T14:11:54;21.70;59.50
29031;DHT22;16122;50.236;11.734;2023-06-26T14:14:20;21.70;59.60
29031;DHT22;16122;50.236;11.734;2023-06-26T14:16:46;21.70;59.60
29031;DHT22;16122;50.236;11.734;2023-06-26T14:19:15;21.70;60.30
29031;DHT22;16122;50.236;11.734;2023-06-26T14:21:43;21.70;59.70
29031;DHT22;16122;50.236;11.734;2023-06-26T14:24:09;21.70;59.70
29031;DHT22;16122;50.236;11.734;2023-06-26T14:26:35;21.70;59.70
29031;DHT22;16122;50.236;11.734;2023-06-26T14:29:02;21.80;59.80
29031;DHT22;16122;50.236;11.734;2023-06-26T14:31:28;21.80;59.80
29031;DHT22;16122;50.236;11.734;2023-06-26T14:33:54;21.80;59.80
29031;DHT22;16122;50.236;11.734;2023-06-26T14:36:19;21.80;60.00
29031;DHT22;16122;50.236;11.734;2023-06-26T14:38:45;21.80;60.00
29031;DHT22;16122;50.236;11.734;2023-06-26T14:41:12;21.80;60.00
29031;DHT22;16122;50.236;11.734;2023-06-26T14:43:41;21.80;60.00
29031;DHT22;16122;50.236;11.734;2023-06-26T14:46:07;21.80;60.10
29031;DHT22;16122;50.236;11.734;2023-06-26T14:48:33;21.80;60.20
29031;DHT22;16122;50.236;11.734;2023-06-26T14:50:59;21.80;60.20
29031;DHT22;16122;50.236;11.734;2023-06-26T14:53:25;21.80;60.30
29031;DHT22;16122;50.236;11.734;2023-06-26T14:55:51;21.80;60.30
29031;DHT22;16122;50.236;11.734;2023-06-26T14:58:17;21.80;60.40
29031;DHT22;16122;50.236;11.734;2023-06-26T15:00:43;21.80;60.40
29031;DHT22;16122;50.236;11.734;2023-06-26T15:03:09;21.80;60.40
29031;DHT22;16122;50.236;11.734;2023-06-26T15:05:35;21.80;60.50
29031;DHT22;16122;50.236;11.734;2023-06-26T15:08:01;21.80;60.60
29031;DHT22;16122;50.236;11.734;2023-06-26T15:10:27;21.80;60.70
29031;DHT22;16122;50.236;11.734;2023-06-26T15:12:52;21.80;60.80
29031;DHT22;16122;50.236;11.734;2023-06-26T15:15:19;21.80;60.80
29031;DHT22;16122;50.236;11.734;2023-06-26T15:17:45;21.90;61.00
29031;DHT22;16122;50.236;11.734;2023-06-26T15:20:11;21.80;60.90
29031;DHT22;16122;50.236;11.734;2023-06-26T15:22:37;21.80;60.90
29031;DHT22;16122;50.236;11.734;2023-06-26T15:25:03;21.90;61.10
29031;DHT22;16122;50.236;11.734;2023-06-26T15:27:28;21.90;61.10
29031;DHT22;16122;50.236;11.734;2023-06-26T15:29:54;21.90;61.30
29031;DHT22;16122;50.236;11.734;2023-06-26T15:32:20;21.90;61.20
29031;DHT22;16122;50.236;11.734;2023-06-26T15:34:46;21.90;61.20
29031;DHT22;16122;50.236;11.734;2023-06-26T15:37:12;21.90;61.10